KINK

Details ICAO KINK (INK)
Name WINKLER CO
Region United States
Timezone America/Chicago (UTC-5.0)
Plans Departing 1
Arriving 3
Stats Elevation 2,822 ft / 860 m (AMSL)
Location 31.780238° -103.201498°
Runways 2
Magnetic Variation 6.674° E
Sunrise 2018-05-27 11:51:05 UTC / 2018-05-27 06:51:05 Local
Sunset 2018-05-28 01:51:47 UTC / 2018-05-27 20:51:47 Local
Advertisement - Login to hide

Runways

ID Width Length Bearing (true) Bearing (mag) Surface Threshold Offset Overrun Length
04 100 ft / 30 m 3,514 ft / 1,071 m 50.34° 43.67° Asphalt 0 ft / 0 m 3,100 ft / 945 m
13 100 ft / 30 m 5,006 ft / 1,526 m 140.59° 133.92° Asphalt 0 ft / 0 m 0 ft / 0 m
22 100 ft / 30 m 3,514 ft / 1,071 m 230.34° 223.67° Asphalt 0 ft / 0 m 0 ft / 0 m
31 100 ft / 30 m 5,006 ft / 1,526 m 320.60° 313.93° Asphalt 0 ft / 0 m 0 ft / 0 m

Map

Weather


0- 5 10 15 20 25 30 35+ Temperature / ° C

Clouds and Precipitation
Forecast for 2018-05-27 18:00 UTC. Updated 35 minutes ago

Ground ~20,000 ft ~40,000 ft Winds

METAR

KINK 271653Z AUTO 10SM CLR 37/08 A2981 RMK AO2 SLP037 T03720078

TAF

TAF KINK 271720Z 2718/2818 19012G20KT P6SM SCT060 SCT250 AMD NOT SKED

Frequencies

Recorded 118.32 MHz ASOS
Unicom 123.00 MHz CTAF/UNICOM
Warning: Do not use this data for real-world aviation or navigation. No guarantee of current accuracy is given.